Time;durP1;ratioP1;P1;durP2;ratioP2;P2;SDS_P1;SDS_P2;PMS_P1;PMS_P2;Temp;Humidity;BMP_temperature;BMP_pressure;BME280_temperature;BME280_humidity;BME280_pressure;Samples;Min_cycle;Max_cycle;Signal;HPM_P1;HPM_P2
2021/05/24 00:02:11;;;;;;;84.28;49.38;;;20.30;99.90;;;;;;4936592;29;20026;-76
2021/05/24 00:04:37;;;;;;;50.40;31.13;;;20.40;99.90;;;;;;4934391;29;20424;-75
2021/05/24 00:07:03;;;;;;;22.23;12.13;;;20.60;99.90;;;;;;4936393;29;20024;-76
2021/05/24 00:09:29;;;;;;;14.30;7.32;;;20.60;99.90;;;;;;4936208;29;20028;-78
2021/05/24 00:11:55;;;;;;;10.98;6.07;;;20.60;99.90;;;;;;4933822;29;20030;-83
2021/05/24 00:14:23;;;;;;;10.68;5.65;;;20.60;99.90;;;;;;4936473;29;20020;-76
2021/05/24 00:16:49;;;;;;;19.05;6.30;;;20.00;99.90;;;;;;4936275;29;20079;-78
2021/05/24 00:19:15;;;;;;;11.45;7.07;;;19.80;99.90;;;;;;4940463;29;20424;-79
2021/05/24 00:21:40;;;;;;;12.07;6.40;;;20.00;99.90;;;;;;4936320;29;20427;-76
2021/05/24 00:24:06;;;;;;;14.27;6.82;;;20.20;99.90;;;;;;4936525;29;20048;-76
2021/05/24 00:26:32;;;;;;;11.38;6.03;;;20.30;99.90;;;;;;4935822;29;20032;-78
2021/05/24 00:28:58;;;;;;;14.48;6.32;;;20.30;99.90;;;;;;4935958;29;20052;-80
2021/05/24 00:31:24;;;;;;;10.40;6.25;;;20.30;99.90;;;;;;4936387;29;20460;-77
2021/05/24 00:33:50;;;;;;;13.50;6.10;;;20.10;99.90;;;;;;4936080;29;20036;-78
2021/05/24 00:36:16;;;;;;;17.33;7.00;;;20.20;99.90;;;;;;4936165;29;20023;-78
2021/05/24 00:38:41;;;;;;;11.25;6.28;;;20.00;99.90;;;;;;4919054;29;20023;-80
2021/05/24 00:41:07;;;;;;;11.57;5.40;;;19.80;99.90;;;;;;4918841;29;20106;-77
2021/05/24 00:43:33;;;;;;;8.10;4.07;;;19.80;99.90;;;;;;4918504;29;20063;-74
2021/05/24 00:45:59;;;;;;;9.48;4.75;;;19.60;99.90;;;;;;4936547;29;20020;-75
2021/05/24 00:48:25;;;;;;;13.40;5.93;;;19.60;99.90;;;;;;4917981;29;20023;-79
2021/05/24 00:50:51;;;;;;;12.02;4.93;;;19.60;99.90;;;;;;4935455;29;20032;-77
2021/05/24 00:53:16;;;;;;;12.43;4.10;;;19.60;99.90;;;;;;4925507;29;20442;-76
2021/05/24 00:55:42;;;;;;;9.85;3.70;;;19.40;99.90;;;;;;4952314;29;20420;-78
2021/05/24 00:58:08;;;;;;;6.20;4.32;;;18.90;99.90;;;;;;4953652;29;20738;-76
2021/05/24 01:00:46;;;;;;;6.88;3.92;;;18.80;99.90;;;;;;4954072;28;20034;-78
2021/05/24 01:03:13;;;;;;;17.25;4.35;;;18.90;99.90;;;;;;4953352;29;20025;-77
2021/05/24 01:05:41;;;;;;;8.88;4.88;;;19.20;99.90;;;;;;4954728;28;20104;-75
2021/05/24 01:08:09;;;;;;;8.15;4.25;;;19.30;99.90;;;;;;4954463;28;20035;-73
2021/05/24 01:10:35;;;;;;;10.90;4.13;;;19.60;99.90;;;;;;4954892;28;20500;-78
2021/05/24 01:13:04;;;;;;;10.75;4.95;;;19.60;99.90;;;;;;4955898;28;20110;-78
2021/05/24 01:15:30;;;;;;;6.78;4.00;;;19.70;99.90;;;;;;4954276;29;20364;-78
2021/05/24 01:17:56;;;;;;;10.13;4.13;;;19.70;99.90;;;;;;4956001;28;20078;-76
2021/05/24 01:20:26;;;;;;;10.20;4.07;;;19.70;99.90;;;;;;4956039;28;20020;-77
2021/05/24 01:23:27;;;;;;;7.88;4.20;;;19.80;99.90;;;;;;4955492;28;20357;-76
2021/05/24 01:25:48;;;;;;;8.75;3.83;;;19.60;99.90;;;;;;4954387;28;20068;-76
2021/05/24 01:28:16;;;;;;;9.52;4.78;;;19.70;99.90;;;;;;4955562;28;20141;-77
2021/05/24 01:30:43;;;;;;;8.60;4.45;;;19.80;99.90;;;;;;4955580;28;20114;-78
2021/05/24 01:33:09;;;;;;;8.65;4.10;;;19.80;99.90;;;;;;4955404;28;20111;-77
2021/05/24 01:35:38;;;;;;;6.82;4.25;;;19.80;99.90;;;;;;4955595;28;20106;-76
2021/05/24 01:38:06;;;;;;;15.52;4.03;;;19.60;99.90;;;;;;4954164;29;20031;-78
2021/05/24 01:40:33;;;;;;;7.45;3.55;;;19.00;99.90;;;;;;4955400;28;20419;-77
2021/05/24 01:43:00;;;;;;;6.85;3.58;;;18.60;99.90;;;;;;4953872;28;20073;-77
2021/05/24 01:45:27;;;;;;;6.80;4.20;;;18.40;99.90;;;;;;4954231;29;20526;-77
2021/05/24 01:47:54;;;;;;;12.15;4.57;;;18.30;99.90;;;;;;4955165;28;20102;-76
2021/05/24 01:50:21;;;;;;;7.32;4.18;;;18.70;99.90;;;;;;4955157;28;20031;-76
2021/05/24 01:52:47;;;;;;;7.25;3.90;;;18.90;99.90;;;;;;4954878;28;20031;-78
2021/05/24 01:55:14;;;;;;;11.48;5.10;;;18.90;99.90;;;;;;4955392;28;20114;-77
2021/05/24 01:57:40;;;;;;;15.55;5.20;;;19.10;99.90;;;;;;4954545;28;20085;-77
2021/05/24 02:00:11;;;;;;;11.82;4.13;;;19.30;99.90;;;;;;4955112;28;20464;-76
2021/05/24 02:02:39;;;;;;;8.75;4.15;;;19.20;99.90;;;;;;4954764;28;20078;-78
2021/05/24 02:05:06;;;;;;;9.48;4.20;;;19.30;99.90;;;;;;4953875;29;20487;-76
2021/05/24 02:07:32;;;;;;;8.23;5.40;;;19.20;99.90;;;;;;4954894;28;20468;-76
2021/05/24 02:09:58;;;;;;;8.30;4.85;;;19.20;99.90;;;;;;4954903;28;20078;-79
2021/05/24 02:12:23;;;;;;;10.20;5.07;;;19.10;99.90;;;;;;4946369;29;20032;-77
2021/05/24 02:14:51;;;;;;;7.57;4.95;;;19.10;99.90;;;;;;4946634;29;20028;-78
2021/05/24 02:17:18;;;;;;;9.68;4.93;;;19.00;99.90;;;;;;4935552;29;20038;-76
2021/05/24 02:19:46;;;;;;;7.22;4.53;;;18.90;99.90;;;;;;4935670;29;20034;-78
2021/05/24 02:22:12;;;;;;;8.00;4.68;;;18.60;99.90;;;;;;4935281;29;20189;-77
2021/05/24 02:24:38;;;;;;;11.32;4.75;;;18.70;99.90;;;;;;4935557;29;20103;-78
2021/05/24 02:27:04;;;;;;;9.68;4.53;;;18.70;99.90;;;;;;4935307;29;20028;-76
2021/05/24 02:29:30;;;;;;;7.57;4.10;;;18.80;99.90;;;;;;4935368;29;20063;-77
2021/05/24 02:31:57;;;;;;;10.55;5.25;;;18.80;99.90;;;;;;4935466;29;20023;-77
2021/05/24 02:34:23;;;;;;;10.63;4.45;;;18.70;99.90;;;;;;4935228;29;20026;-77
2021/05/24 02:36:48;;;;;;;8.93;4.15;;;18.70;99.90;;;;;;4935020;29;20032;-76
2021/05/24 02:39:14;;;;;;;10.23;4.57;;;18.60;99.90;;;;;;4935310;29;20046;-75
2021/05/24 02:41:40;;;;;;;10.45;5.47;;;18.50;99.90;;;;;;4934829;29;20115;-77
2021/05/24 02:44:06;;;;;;;8.30;4.40;;;18.00;99.90;;;;;;4934888;29;20039;-77
2021/05/24 02:46:33;;;;;;;9.80;4.50;;;17.90;99.90;;;;;;4935281;29;20027;-78
2021/05/24 02:48:59;;;;;;;11.30;4.25;;;18.30;99.90;;;;;;4937509;29;20361;-74
2021/05/24 02:51:24;;;;;;;11.10;5.55;;;18.20;99.90;;;;;;4954004;29;20615;-76
2021/05/24 02:53:50;;;;;;;9.77;5.47;;;18.50;99.90;;;;;;4953814;29;20051;-75
2021/05/24 02:56:16;;;;;;;11.20;4.68;;;18.40;99.90;;;;;;4919337;29;20424;-78
2021/05/24 02:58:42;;;;;;;7.88;4.45;;;18.40;99.90;;;;;;4934044;29;20106;-76
2021/05/24 03:01:08;;;;;;;10.00;5.35;;;17.50;99.90;;;;;;4917724;29;20118;-76
2021/05/24 03:03:34;;;;;;;8.77;4.50;;;17.90;99.90;;;;;;4934466;29;20098;-75
2021/05/24 03:06:04;;;;;;;9.38;4.75;;;18.20;99.90;;;;;;4917404;29;20428;-76
2021/05/24 03:08:31;;;;;;;10.15;4.65;;;18.30;99.90;;;;;;4934894;29;20038;-74
2021/05/24 03:10:58;;;;;;;7.75;4.25;;;18.40;99.90;;;;;;4934686;29;20039;-75
2021/05/24 03:13:25;;;;;;;12.40;4.72;;;18.50;99.90;;;;;;4934234;29;20051;-77
2021/05/24 03:15:55;;;;;;;8.65;4.60;;;18.50;99.90;;;;;;4917733;29;20028;-76
2021/05/24 03:18:22;;;;;;;9.75;4.55;;;18.50;99.90;;;;;;4917378;29;20032;-76
2021/05/24 03:20:48;;;;;;;8.45;4.30;;;18.50;99.90;;;;;;4934338;29;20435;-77
2021/05/24 03:23:14;;;;;;;8.15;4.18;;;18.50;99.90;;;;;;4934167;29;20044;-74
2021/05/24 03:25:40;;;;;;;10.77;4.63;;;18.50;99.90;;;;;;4917526;29;20091;-76
2021/05/24 03:28:06;;;;;;;9.48;4.50;;;18.60;99.90;;;;;;4934463;29;20015;-78
2021/05/24 03:30:31;;;;;;;8.30;4.50;;;18.60;99.90;;;;;;4934548;29;20476;-78
2021/05/24 03:32:58;;;;;;;13.13;5.05;;;18.50;99.90;;;;;;4934168;29;20035;-79
2021/05/24 03:35:24;;;;;;;9.35;4.72;;;18.50;99.90;;;;;;4934398;29;20034;-79
2021/05/24 03:37:49;;;;;;;8.65;4.93;;;18.50;99.90;;;;;;4917027;29;20035;-79
2021/05/24 03:40:16;;;;;;;7.30;4.30;;;18.40;99.90;;;;;;4934559;29;20035;-78
2021/05/24 03:42:42;;;;;;;10.50;4.78;;;18.40;99.90;;;;;;4934062;29;20028;-79
2021/05/24 03:45:11;;;;;;;10.48;4.70;;;18.30;99.90;;;;;;4934455;29;20039;-79
2021/05/24 03:47:38;;;;;;;10.17;4.80;;;18.30;99.90;;;;;;4934113;29;20024;-79
2021/05/24 03:50:06;;;;;;;11.82;5.00;;;18.30;99.90;;;;;;4944164;29;20023;-79
2021/05/24 03:52:31;;;;;;;11.68;4.82;;;18.50;99.90;;;;;;4953658;29;20042;-76
2021/05/24 03:54:57;;;;;;;9.50;5.00;;;18.60;99.90;;;;;;4953431;29;20052;-77
2021/05/24 03:57:23;;;;;;;10.50;5.22;;;18.60;99.90;;;;;;4953347;29;20175;-78
2021/05/24 03:59:49;;;;;;;10.43;4.68;;;18.70;99.90;;;;;;4953433;29;20486;-77
2021/05/24 04:02:14;;;;;;;9.10;4.70;;;18.80;99.90;;;;;;4953419;29;20029;-77
2021/05/24 04:04:41;;;;;;;9.10;4.65;;;18.70;99.90;;;;;;4935906;29;20041;-76
2021/05/24 04:07:09;;;;;;;10.43;4.25;;;18.80;99.90;;;;;;4953238;29;20023;-75
2021/05/24 04:09:35;;;;;;;13.57;4.40;;;18.80;99.90;;;;;;4953438;29;20439;-78
2021/05/24 04:12:01;;;;;;;12.27;4.40;;;18.50;99.90;;;;;;4953236;29;20024;-77
2021/05/24 04:14:27;;;;;;;8.15;3.70;;;18.60;99.90;;;;;;4952999;29;20054;-78
2021/05/24 04:16:53;;;;;;;10.10;4.35;;;18.50;99.90;;;;;;4953297;29;20148;-77
2021/05/24 04:19:20;;;;;;;12.45;4.43;;;18.60;99.90;;;;;;4953010;29;20024;-78
2021/05/24 04:21:46;;;;;;;8.13;4.75;;;18.80;99.90;;;;;;4953134;29;20023;-78
2021/05/24 04:24:13;;;;;;;10.80;4.47;;;18.90;99.90;;;;;;4953291;29;20039;-74
2021/05/24 04:26:40;;;;;;;17.05;4.68;;;18.90;99.90;;;;;;4953011;28;20055;-76
2021/05/24 04:29:06;;;;;;;10.38;4.25;;;18.90;99.90;;;;;;4935509;29;20427;-74
2021/05/24 04:31:33;;;;;;;8.50;3.80;;;18.90;99.90;;;;;;4953268;29;20027;-76
2021/05/24 04:33:58;;;;;;;8.88;4.28;;;19.10;99.90;;;;;;4953046;28;20027;-76
2021/05/24 04:36:24;;;;;;;11.90;4.50;;;19.10;99.90;;;;;;4956577;29;20065;-77
2021/05/24 04:38:50;;;;;;;11.68;4.57;;;19.20;99.90;;;;;;4956848;29;20510;-78
2021/05/24 04:41:16;;;;;;;7.22;4.40;;;19.50;99.90;;;;;;4939450;29;20058;-78
2021/05/24 04:43:42;;;;;;;13.57;5.40;;;19.60;99.90;;;;;;4956066;29;20030;-78
2021/05/24 04:46:09;;;;;;;9.10;5.25;;;19.60;99.90;;;;;;4956558;29;20041;-76
2021/05/24 04:48:35;;;;;;;12.35;5.20;;;19.60;99.90;;;;;;4956288;29;20023;-78
2021/05/24 04:51:02;;;;;;;10.52;5.13;;;19.60;99.90;;;;;;4923153;29;20083;-78
2021/05/24 04:53:28;;;;;;;10.85;5.28;;;19.50;99.90;;;;;;4943639;28;20054;-76
2021/05/24 04:55:54;;;;;;;11.05;5.13;;;19.50;99.90;;;;;;4956414;28;20039;-81
2021/05/24 04:58:20;;;;;;;11.63;4.90;;;19.70;99.90;;;;;;4956274;28;20415;-79
2021/05/24 05:00:46;;;;;;;9.35;4.72;;;19.70;99.90;;;;;;4955970;28;20051;-79
2021/05/24 05:03:12;;;;;;;9.73;4.30;;;19.70;99.90;;;;;;4955874;28;20024;-78
2021/05/24 05:05:38;;;;;;;8.70;3.92;;;19.60;99.90;;;;;;4956080;28;20098;-78
2021/05/24 05:08:04;;;;;;;10.32;3.70;;;19.50;99.90;;;;;;4954696;29;20030;-78
2021/05/24 05:10:30;;;;;;;11.20;4.18;;;19.70;99.90;;;;;;4956106;28;20082;-79
2021/05/24 05:12:55;;;;;;;8.27;3.40;;;19.90;99.90;;;;;;4954818;29;20476;-76
2021/05/24 05:15:21;;;;;;;10.85;4.75;;;19.90;99.90;;;;;;4955658;29;20101;-78
2021/05/24 05:17:47;;;;;;;11.70;4.57;;;20.00;99.90;;;;;;4956085;28;20027;-76
2021/05/24 05:20:13;;;;;;;12.35;5.07;;;20.10;99.90;;;;;;4955989;29;20031;-77
2021/05/24 05:22:39;;;;;;;8.63;3.97;;;20.10;99.90;;;;;;4955689;28;20451;-78
2021/05/24 05:25:06;;;;;;;12.02;4.57;;;20.00;99.90;;;;;;4955483;28;20500;-77
2021/05/24 05:27:32;;;;;;;15.07;4.30;;;20.00;99.90;;;;;;4955732;28;20073;-77
2021/05/24 05:29:58;;;;;;;13.18;4.60;;;20.10;99.90;;;;;;4955492;29;20031;-79
2021/05/24 05:32:23;;;;;;;11.82;4.03;;;19.90;99.90;;;;;;4955281;28;20058;-78
2021/05/24 05:34:49;;;;;;;10.52;4.65;;;20.00;99.90;;;;;;4954284;29;20031;-80
2021/05/24 05:37:15;;;;;;;55.53;32.28;;;20.10;99.90;;;;;;4955632;29;20107;-79
2021/05/24 05:39:41;;;;;;;116.72;76.90;;;20.20;99.90;;;;;;4955317;28;20023;-81
2021/05/24 05:42:07;;;;;;;44.13;27.35;;;20.50;99.90;;;;;;4954202;29;20473;-81
2021/05/24 05:44:33;;;;;;;28.65;15.73;;;20.50;99.90;;;;;;4955067;29;20035;-76
2021/05/24 05:46:58;;;;;;;12.45;7.55;;;20.50;99.90;;;;;;4954109;28;20034;-75
2021/05/24 05:49:24;;;;;;;10.32;5.00;;;20.60;99.90;;;;;;4955227;28;20027;-78
2021/05/24 05:51:50;;;;;;;12.43;4.47;;;20.70;99.90;;;;;;4955182;29;20023;-76
2021/05/24 05:54:16;;;;;;;8.95;3.80;;;20.70;99.90;;;;;;4954683;29;20089;-77
2021/05/24 05:56:41;;;;;;;9.45;4.10;;;20.80;99.90;;;;;;4955186;29;20023;-78
2021/05/24 05:59:07;;;;;;;10.80;3.90;;;20.90;99.90;;;;;;4954860;29;20046;-74
2021/05/24 06:01:33;;;;;;;7.97;3.60;;;21.00;99.90;;;;;;4954852;29;20023;-78
2021/05/24 06:03:59;;;;;;;12.07;4.35;;;21.00;99.90;;;;;;4940822;29;20130;-77
2021/05/24 06:06:24;;;;;;;9.73;3.92;;;21.00;99.90;;;;;;4935523;29;20055;-76
2021/05/24 06:08:50;;;;;;;11.73;3.88;;;21.00;99.90;;;;;;4936225;29;20439;-78
2021/05/24 06:11:16;;;;;;;10.02;4.10;;;21.10;99.90;;;;;;4935346;29;20030;-78
2021/05/24 06:13:42;;;;;;;10.90;5.20;;;21.20;99.90;;;;;;4935478;29;20384;-78
2021/05/24 06:16:07;;;;;;;12.40;4.22;;;21.20;99.90;;;;;;4918666;29;20027;-78
2021/05/24 06:18:33;;;;;;;12.18;4.25;;;21.10;99.90;;;;;;4935517;29;20353;-80
2021/05/24 06:20:59;;;;;;;12.52;5.32;;;21.10;99.90;;;;;;4935677;29;20515;-78
2021/05/24 06:23:25;;;;;;;10.32;5.13;;;21.00;99.90;;;;;;4935277;29;20034;-82
2021/05/24 06:25:50;;;;;;;11.38;4.82;;;20.90;99.90;;;;;;4935073;29;20055;-80
2021/05/24 06:28:17;;;;;;;12.35;4.78;;;20.90;99.90;;;;;;4934822;29;20035;-79
2021/05/24 06:30:42;;;;;;;15.88;5.25;;;21.10;99.90;;;;;;4918450;29;20175;-79
2021/05/24 06:33:10;;;;;;;10.27;4.45;;;21.30;99.90;;;;;;4917981;29;20035;-77
2021/05/24 06:35:36;;;;;;;9.85;4.07;;;21.50;99.90;;;;;;4935151;29;20163;-76
2021/05/24 06:38:02;;;;;;;11.48;5.18;;;21.60;99.90;;;;;;4934456;29;20103;-75
2021/05/24 06:40:28;;;;;;;10.30;4.18;;;21.60;99.90;;;;;;4934841;29;20039;-79
2021/05/24 06:42:54;;;;;;;14.98;4.70;;;21.60;99.90;;;;;;4934957;29;20027;-80
2021/05/24 06:45:20;;;;;;;10.68;4.72;;;21.70;99.90;;;;;;4935096;29;19922;-77
2021/05/24 06:47:47;;;;;;;11.68;4.32;;;21.80;99.90;;;;;;4935113;29;20063;-79
2021/05/24 06:50:13;;;;;;;9.57;4.40;;;21.80;99.90;;;;;;4941455;29;20058;-79
2021/05/24 06:52:39;;;;;;;12.32;4.53;;;21.70;99.90;;;;;;4954120;29;20053;-79
2021/05/24 06:55:06;;;;;;;13.57;4.57;;;21.50;99.90;;;;;;4954023;29;20122;-80
2021/05/24 06:57:32;;;;;;;16.90;4.05;;;21.80;99.90;;;;;;4953051;28;20038;-76
2021/05/24 06:59:57;;;;;;;12.88;4.95;;;21.90;99.90;;;;;;4953831;29;20023;-76
2021/05/24 07:02:23;;;;;;;13.35;4.32;;;22.00;99.90;;;;;;4936521;29;20522;-76
2021/05/24 07:04:49;;;;;;;11.18;4.20;;;22.10;99.90;;;;;;4953628;29;20108;-76
2021/05/24 07:07:15;;;;;;;9.15;3.30;;;22.20;99.90;;;;;;4953716;29;20039;-75
2021/05/24 07:09:41;;;;;;;8.98;4.20;;;22.30;99.80;;;;;;4953801;29;20035;-76
2021/05/24 07:12:08;;;;;;;11.30;3.75;;;22.40;99.90;;;;;;4953282;29;20121;-76
2021/05/24 07:14:34;;;;;;;8.25;3.42;;;22.40;98.90;;;;;;4953746;29;20034;-76
2021/05/24 07:17:00;;;;;;;16.23;3.42;;;22.50;99.10;;;;;;4936330;29;20023;-76
2021/05/24 07:19:26;;;;;;;10.32;4.22;;;22.40;98.80;;;;;;4953322;29;20379;-75
2021/05/24 07:21:53;;;;;;;13.82;3.45;;;22.50;98.70;;;;;;4936417;29;20062;-75
2021/05/24 07:24:19;;;;;;;10.25;3.42;;;22.50;98.50;;;;;;4953363;29;20070;-79
2021/05/24 07:26:47;;;;;;;7.55;3.17;;;22.30;98.60;;;;;;4953517;28;20106;-80
2021/05/24 07:29:13;;;;;;;10.00;3.90;;;22.50;98.40;;;;;;4936326;29;20035;-80
2021/05/24 07:31:48;;;;;;;8.38;3.53;;;22.50;98.30;;;;;;4953629;29;20101;-80
2021/05/24 07:34:13;;;;;;;10.25;4.57;;;22.30;98.80;;;;;;4953318;29;20145;-80
2021/05/24 07:36:39;;;;;;;8.60;3.45;;;22.50;99.10;;;;;;4953375;29;20099;-78
2021/05/24 07:39:05;;;;;;;6.38;3.05;;;22.70;99.10;;;;;;4953833;29;20065;-80
2021/05/24 07:41:31;;;;;;;6.55;2.78;;;22.80;98.90;;;;;;4953036;29;20057;-76
2021/05/24 07:43:57;;;;;;;7.72;3.13;;;22.80;99.00;;;;;;4953352;29;20133;-77
2021/05/24 07:46:22;;;;;;;8.48;2.95;;;22.90;98.80;;;;;;4953259;29;20035;-76
2021/05/24 07:48:48;;;;;;;13.93;3.40;;;23.00;98.00;;;;;;4953153;29;20102;-80
2021/05/24 07:51:14;;;;;;;13.77;3.50;;;23.10;97.90;;;;;;4922307;29;20023;-82
2021/05/24 07:53:40;;;;;;;9.38;3.50;;;23.10;97.50;;;;;;4942292;29;20499;-82
2021/05/24 07:56:05;;;;;;;8.23;3.97;;;23.10;97.80;;;;;;4953017;28;20046;-76
2021/05/24 07:58:31;;;;;;;10.18;3.60;;;23.00;97.60;;;;;;4952946;28;20023;-77
2021/05/24 08:00:57;;;;;;;10.27;4.75;;;23.10;97.50;;;;;;4953214;28;20031;-77
2021/05/24 08:03:23;;;;;;;10.82;3.38;;;23.30;97.80;;;;;;4952956;29;20514;-78
2021/05/24 08:05:48;;;;;;;10.55;3.20;;;23.40;98.00;;;;;;4952932;28;20028;-78
2021/05/24 08:08:14;;;;;;;11.30;3.42;;;23.50;97.50;;;;;;4953246;28;20041;-77
2021/05/24 08:10:40;;;;;;;10.60;3.70;;;23.50;97.00;;;;;;4955797;28;20481;-80
2021/05/24 08:13:05;;;;;;;12.57;3.28;;;23.40;97.40;;;;;;4956146;29;20027;-77
2021/05/24 08:15:32;;;;;;;11.80;3.92;;;23.50;97.50;;;;;;4946439;28;20062;-81
2021/05/24 08:18:04;;;;;;;11.45;6.38;;;23.60;97.20;;;;;;4955317;29;20533;-83
2021/05/24 08:20:31;;;;;;;25.50;17.98;;;23.60;96.70;;;;;;4956584;28;20078;-83
2021/05/24 08:22:57;;;;;;;22.58;13.55;;;23.70;97.10;;;;;;4955315;29;20105;-79
2021/05/24 08:25:23;;;;;;;16.05;9.50;;;23.80;97.10;;;;;;4956295;28;20046;-81
2021/05/24 08:27:49;;;;;;;10.27;3.90;;;23.90;96.70;;;;;;4956315;28;20027;-78
2021/05/24 08:30:15;;;;;;;11.60;3.55;;;23.80;96.70;;;;;;4956539;28;20027;-83
2021/05/24 08:32:41;;;;;;;8.18;3.53;;;23.80;96.30;;;;;;4953546;28;20038;-81
2021/05/24 08:35:08;;;;;;;16.35;6.88;;;23.70;96.30;;;;;;4954106;29;20084;-82
2021/05/24 08:37:34;;;;;;;10.93;4.38;;;23.80;96.50;;;;;;4956286;28;20090;-80
2021/05/24 08:40:00;;;;;;;10.65;3.58;;;24.00;96.30;;;;;;4956449;28;20031;-81
2021/05/24 08:42:32;;;;;;;6.00;3.00;;;24.10;96.00;;;;;;4956104;28;20535;-81
2021/05/24 08:44:59;;;;;;;7.95;3.25;;;24.10;95.30;;;;;;4956250;29;20579;-78
2021/05/24 08:47:28;;;;;;;7.07;3.35;;;24.10;95.50;;;;;;4956031;28;20031;-83
2021/05/24 08:49:54;;;;;;;13.57;4.25;;;24.00;95.30;;;;;;4954749;29;20035;-82
2021/05/24 08:52:20;;;;;;;10.75;3.78;;;24.10;95.60;;;;;;4954579;29;20031;-79
2021/05/24 08:54:46;;;;;;;7.30;3.22;;;24.00;95.00;;;;;;4954420;29;20051;-81
2021/05/24 08:57:12;;;;;;;8.88;4.13;;;24.00;94.70;;;;;;4955977;29;20027;-83
2021/05/24 08:59:39;;;;;;;8.82;3.58;;;24.30;94.90;;;;;;4955563;29;20138;-77
2021/05/24 09:02:05;;;;;;;12.30;3.72;;;24.40;94.10;;;;;;4955862;29;20102;-85
2021/05/24 09:04:42;;;;;;;7.95;3.95;;;24.30;94.50;;;;;;4955720;29;20042;-80
2021/05/24 09:07:09;;;;;;;11.93;3.55;;;24.70;94.60;;;;;;4954887;29;20390;-78
2021/05/24 09:09:35;;;;;;;7.88;3.17;;;25.10;93.70;;;;;;4955546;29;20043;-81
2021/05/24 09:12:05;;;;;;;9.75;3.17;;;25.00;92.60;;;;;;4955605;29;20023;-78
2021/05/24 09:14:31;;;;;;;9.45;3.80;;;25.10;92.10;;;;;;4955477;28;20051;-83
2021/05/24 09:16:59;;;;;;;10.07;3.72;;;25.20;91.90;;;;;;4955013;29;20031;-77
2021/05/24 09:19:29;;;;;;;10.68;3.40;;;25.40;91.30;;;;;;4954166;28;20027;-79
2021/05/24 09:22:09;;;;;;;14.90;3.85;;;25.40;90.60;;;;;;4953742;29;20086;-80
2021/05/24 09:24:43;;;;;;;11.57;3.88;;;25.80;90.50;;;;;;4953859;28;20636;-79
2021/05/24 09:27:24;;;;;;;11.45;3.83;;;26.10;88.80;;;;;;4951842;29;20030;-76
2021/05/24 09:29:51;;;;;;;11.95;3.58;;;25.80;88.90;;;;;;4950773;29;20023;-77
2021/05/24 09:32:25;;;;;;;9.63;3.58;;;25.80;88.50;;;;;;4953927;28;20031;-82
2021/05/24 09:34:52;;;;;;;10.77;3.80;;;25.90;88.20;;;;;;4951829;29;20015;-76
2021/05/24 09:37:29;;;;;;;8.75;3.78;;;25.90;86.60;;;;;;4954016;28;20035;-81
2021/05/24 09:39:54;;;;;;;8.30;3.72;;;25.90;85.50;;;;;;4950713;29;20023;-80
2021/05/24 09:42:21;;;;;;;14.75;3.47;;;26.30;84.40;;;;;;4954078;28;20089;-76
2021/05/24 09:44:52;;;;;;;12.68;3.53;;;26.60;83.10;;;;;;4953422;28;20031;-76
2021/05/24 09:47:39;;;;;;;12.80;3.50;;;26.40;84.20;;;;;;4953903;28;20116;-77
2021/05/24 09:50:18;;;;;;;6.25;2.90;;;26.20;82.30;;;;;;4953020;29;20034;-77
2021/05/24 09:52:47;;;;;;;8.32;3.70;;;26.40;82.40;;;;;;4953347;28;20023;-79
2021/05/24 09:55:17;;;;;;;32.10;18.88;;;26.20;84.60;;;;;;4952353;29;20350;-80
2021/05/24 09:58:05;;;;;;;12.60;7.57;;;26.50;84.60;;;;;;4952443;29;20027;-81
2021/05/24 10:00:48;;;;;;;15.85;4.97;;;26.90;83.60;;;;;;4948593;29;20027;-80
2021/05/24 10:03:15;;;;;;;9.00;3.70;;;27.10;83.40;;;;;;4950780;29;20030;-76
2021/05/24 10:05:46;;;;;;;10.23;4.22;;;27.00;81.40;;;;;;4953432;28;20015;-81
2021/05/24 10:08:13;;;;;;;13.43;3.63;;;27.10;80.40;;;;;;4952036;29;20024;-77
2021/05/24 10:10:41;;;;;;;12.30;3.95;;;27.40;80.00;;;;;;4954652;28;20518;-83
2021/05/24 10:13:07;;;;;;;11.48;3.97;;;27.70;77.70;;;;;;4954639;28;20023;-75
2021/05/24 10:15:37;;;;;;;9.23;3.78;;;27.40;79.10;;;;;;4954158;28;20087;-79
2021/05/24 10:18:04;;;;;;;10.57;3.55;;;27.60;78.30;;;;;;4954555;28;20034;-81
2021/05/24 10:20:32;;;;;;;9.60;3.53;;;27.50;78.20;;;;;;4952683;28;20027;-84
2021/05/24 10:22:58;;;;;;;11.70;3.20;;;27.30;77.90;;;;;;4954003;28;20031;-83
2021/05/24 10:25:24;;;;;;;14.77;4.43;;;27.30;78.80;;;;;;4953927;28;20055;-79
2021/05/24 10:27:51;;;;;;;9.90;4.45;;;27.30;78.40;;;;;;4953917;28;20467;-80
2021/05/24 10:30:19;;;;;;;7.85;3.53;;;27.00;77.30;;;;;;4951208;28;20122;-77
2021/05/24 10:33:07;;;;;;;11.98;3.38;;;27.00;77.30;;;;;;4950715;28;20039;-76
2021/05/24 10:35:42;;;;;;;8.02;4.40;;;27.50;76.40;;;;;;4950430;29;20023;-78
2021/05/24 10:38:32;;;;;;;9.77;4.10;;;27.50;76.70;;;;;;4953152;28;20031;-77
2021/05/24 10:41:12;;;;;;;8.80;3.10;;;27.70;75.00;;;;;;4953872;28;20035;-80
2021/05/24 10:44:05;;;;;;;7.60;2.78;;;27.90;72.50;;;;;;4953332;29;20043;-83
2021/05/24 10:46:34;;;;;;;10.63;3.83;;;27.70;72.40;;;;;;4951818;29;20122;-86
2021/05/24 10:49:04;;;;;;;9.25;3.63;;;28.00;71.10;;;;;;4953166;28;20038;-85
2021/05/24 10:51:45;;;;;;;9.32;3.20;;;28.40;71.20;;;;;;4953788;28;20090;-78
2021/05/24 10:54:23;;;;;;;9.02;3.13;;;28.00;70.60;;;;;;4957723;28;20051;-86
2021/05/24 10:56:58;;;;;;;8.68;3.20;;;28.10;70.80;;;;;;4963459;28;20055;-85
2021/05/24 10:59:45;;;;;;;12.77;3.05;;;28.20;71.10;;;;;;4962342;28;20477;-83
2021/05/24 11:02:26;;;;;;;11.55;2.78;;;28.40;69.20;;;;;;4958255;28;20521;-81
2021/05/24 11:04:55;;;;;;;30.58;22.30;;;28.40;69.50;;;;;;4952824;29;20047;-81
2021/05/24 11:07:29;;;;;;;25.35;16.92;;;28.20;71.20;;;;;;4936264;29;20027;-78
2021/05/24 11:10:14;;;;;;;12.57;6.72;;;28.20;71.10;;;;;;4952937;28;20538;-77
2021/05/24 11:12:42;;;;;;;9.52;3.97;;;28.50;69.80;;;;;;4965773;28;20530;-79
2021/05/24 11:15:11;;;;;;;8.10;2.38;;;28.00;71.00;;;;;;4961689;28;20038;-81
2021/05/24 11:18:03;;;;;;;8.50;2.75;;;28.00;72.40;;;;;;4949446;28;20035;-81
2021/05/24 11:20:51;;;;;;;7.72;3.28;;;28.00;72.70;;;;;;4972345;28;20031;-79
2021/05/24 11:24:04;;;;;;;14.45;3.00;;;28.00;73.40;;;;;;4962767;28;20027;-77
2021/05/24 11:26:33;;;;;;;7.15;2.55;;;27.90;72.00;;;;;;4962201;28;20356;-80
2021/05/24 11:29:06;;;;;;;10.43;2.60;;;27.70;71.90;;;;;;4943783;28;20047;-78
2021/05/24 11:31:38;;;;;;;8.75;3.10;;;27.70;72.60;;;;;;4961177;28;20019;-76
2021/05/24 11:34:05;;;;;;;8.13;3.20;;;27.70;72.30;;;;;;4943592;28;20019;-77
2021/05/24 11:36:40;;;;;;;9.68;3.30;;;28.10;71.70;;;;;;4962841;28;20037;-79
2021/05/24 11:39:13;;;;;;;9.75;2.95;;;28.10;70.90;;;;;;4944837;28;20023;-77
2021/05/24 11:42:04;;;;;;;5.03;2.10;;;28.40;71.60;;;;;;4959521;28;20042;-78
2021/05/24 11:44:41;;;;;;;9.18;2.67;;;28.10;71.10;;;;;;4960900;28;20085;-77
2021/05/24 11:47:17;;;;;;;9.77;2.95;;;28.40;71.00;;;;;;4962206;28;20110;-75
2021/05/24 11:49:45;;;;;;;8.98;3.22;;;28.60;70.30;;;;;;4960069;28;20019;-77
2021/05/24 11:52:14;;;;;;;8.45;2.63;;;28.80;70.00;;;;;;4961026;28;20025;-77
2021/05/24 11:54:47;;;;;;;10.25;2.67;;;28.80;69.30;;;;;;4961116;28;20178;-83
2021/05/24 11:57:14;;;;;;;8.82;2.50;;;28.50;69.60;;;;;;4943664;28;20391;-81
2021/05/24 11:59:40;;;;;;;6.03;2.40;;;28.60;70.10;;;;;;4959120;28;20024;-81
2021/05/24 12:02:09;;;;;;;7.07;2.70;;;28.70;69.80;;;;;;4952803;29;20516;-84
2021/05/24 12:04:45;;;;;;;5.47;2.33;;;28.80;69.20;;;;;;4954437;28;20031;-84
2021/05/24 12:07:13;;;;;;;5.80;2.55;;;29.00;70.30;;;;;;4960506;28;20106;-81
2021/05/24 12:09:48;;;;;;;7.15;2.38;;;29.10;68.60;;;;;;4960444;28;20495;-82
2021/05/24 12:12:20;;;;;;;7.45;2.42;;;29.30;68.30;;;;;;4960433;28;20435;-80
2021/05/24 12:14:48;;;;;;;7.80;2.00;;;29.70;67.70;;;;;;4959068;28;20031;-82
2021/05/24 12:17:17;;;;;;;9.15;2.53;;;29.50;66.80;;;;;;4943613;28;20502;-82
2021/05/24 12:19:44;;;;;;;5.88;2.55;;;29.30;68.20;;;;;;4962261;28;20038;-81
2021/05/24 12:22:13;;;;;;;5.28;2.25;;;29.50;68.30;;;;;;4961439;28;20031;-79
2021/05/24 12:24:44;;;;;;;6.18;2.67;;;29.90;68.00;;;;;;4942921;28;20055;-81
2021/05/24 12:27:12;;;;;;;5.30;2.35;;;30.30;66.90;;;;;;4961301;28;20375;-79
2021/05/24 12:29:53;;;;;;;5.80;2.03;;;30.60;66.20;;;;;;4962175;28;20031;-78
2021/05/24 12:32:35;;;;;;;6.68;1.98;;;30.00;66.60;;;;;;4959614;28;20452;-81
2021/05/24 12:35:16;;;;;;;5.85;2.30;;;29.80;65.30;;;;;;4940597;28;20050;-80
2021/05/24 12:37:49;;;;;;;6.22;2.53;;;29.70;65.60;;;;;;4957969;28;20357;-80
2021/05/24 12:40:17;;;;;;;16.23;2.78;;;29.70;65.90;;;;;;4960580;28;20035;-79
2021/05/24 12:42:43;;;;;;;18.13;3.20;;;29.80;65.90;;;;;;4940987;28;20019;-80
2021/05/24 12:45:13;;;;;;;11.20;2.20;;;29.60;66.90;;;;;;4956367;28;20239;-75
2021/05/24 12:47:38;;;;;;;;;;;29.50;69.50;;;;;;4971556;28;20483;-78